createdAt,value
2022-12-31T00:01:58.507Z,26.20
2022-12-31T00:07:00.593Z,31.85
2022-12-31T00:12:02.574Z,27.58
2022-12-31T00:17:04.651Z,27.45
2022-12-31T00:22:06.568Z,24.42
2022-12-31T00:27:08.610Z,25.85
2022-12-31T00:32:10.603Z,22.02
2022-12-31T00:37:12.538Z,18.27
2022-12-31T00:42:14.480Z,20.85
2022-12-31T00:47:16.566Z,21.50
2022-12-31T00:52:18.589Z,24.13
2022-12-31T00:57:20.605Z,24.02
2022-12-31T01:02:22.718Z,29.15
2022-12-31T01:07:24.754Z,32.95
2022-12-31T01:12:26.822Z,27.17
2022-12-31T01:17:28.868Z,23.35
2022-12-31T01:22:30.846Z,26.52
2022-12-31T01:27:32.756Z,29.40
2022-12-31T01:32:34.908Z,23.40
2022-12-31T01:37:36.880Z,31.30
2022-12-31T01:42:38.875Z,33.35
2022-12-31T01:47:48.603Z,30.02
2022-12-31T01:52:54.354Z,27.13
2022-12-31T01:58:01.416Z,23.02
2022-12-31T02:08:22.451Z,38.10
2022-12-31T02:13:24.613Z,36.85
2022-12-31T02:18:50.286Z,37.30
2022-12-31T02:24:25.974Z,33.58
2022-12-31T02:29:49.650Z,39.70
2022-12-31T02:34:57.139Z,33.63
2022-12-31T02:40:00.698Z,36.60
2022-12-31T02:45:02.732Z,35.88
2022-12-31T02:50:21.842Z,32.47
2022-12-31T02:55:42.463Z,37.03
2022-12-31T03:01:10.393Z,33.20
2022-12-31T03:06:13.823Z,33.45
2022-12-31T03:11:35.764Z,25.70
2022-12-31T03:16:37.860Z,29.00
2022-12-31T03:21:58.385Z,32.33
2022-12-31T03:27:00.424Z,30.00
2022-12-31T03:32:02.628Z,31.40
2022-12-31T03:37:04.641Z,27.55
2022-12-31T03:42:06.993Z,25.77
2022-12-31T03:47:09.021Z,25.48
2022-12-31T03:52:11.084Z,24.13
2022-12-31T03:57:13.209Z,24.48
2022-12-31T04:02:16.267Z,27.08
2022-12-31T04:07:18.653Z,25.20
2022-12-31T04:12:20.672Z,23.38
2022-12-31T04:17:22.824Z,22.70
2022-12-31T04:22:25.114Z,19.60
2022-12-31T04:27:27.170Z,18.95
2022-12-31T04:32:29.280Z,18.88
2022-12-31T04:37:31.259Z,18.48
2022-12-31T04:42:33.325Z,19.73
2022-12-31T04:47:35.369Z,22.40
2022-12-31T04:52:42.719Z,19.85
2022-12-31T04:57:45.142Z,15.73
2022-12-31T05:02:47.339Z,20.05
2022-12-31T05:07:49.392Z,19.75
2022-12-31T05:12:51.321Z,15.25
2022-12-31T05:17:53.259Z,18.02
2022-12-31T05:22:55.676Z,15.65
2022-12-31T05:27:57.617Z,15.68
2022-12-31T05:32:59.635Z,16.25
2022-12-31T05:38:02.146Z,15.95
2022-12-31T05:48:06.387Z,13.27
2022-12-31T05:53:08.382Z,13.00
2022-12-31T05:58:10.450Z,11.68
2022-12-31T06:03:12.760Z,14.65
2022-12-31T06:08:14.803Z,11.50
2022-12-31T06:13:16.858Z,11.73
2022-12-31T06:18:18.981Z,14.45
2022-12-31T06:23:20.979Z,13.07
2022-12-31T06:28:22.976Z,12.35
2022-12-31T06:33:25.123Z,11.13
2022-12-31T06:38:28.840Z,11.77
2022-12-31T06:43:30.944Z,13.00
2022-12-31T06:48:33.098Z,12.68
2022-12-31T06:53:35.215Z,11.27
2022-12-31T06:58:37.926Z,11.93
2022-12-31T07:04:07.298Z,13.40
2022-12-31T07:09:23.893Z,11.27
2022-12-31T07:14:44.144Z,12.48
2022-12-31T07:20:09.553Z,11.27
2022-12-31T07:25:17.147Z,10.88
2022-12-31T07:30:27.941Z,12.48
2022-12-31T07:35:35.041Z,12.60
2022-12-31T07:41:09.932Z,11.00
2022-12-31T07:46:25.220Z,11.00
2022-12-31T07:51:27.640Z,12.07
2022-12-31T08:01:40.181Z,12.60
2022-12-31T08:06:54.236Z,11.95
2022-12-31T08:12:01.430Z,9.65
2022-12-31T08:17:03.771Z,11.60
2022-12-31T08:28:00.611Z,12.52
2022-12-31T08:33:18.609Z,11.48
2022-12-31T08:38:26.578Z,9.88
2022-12-31T08:43:28.507Z,12.18
2022-12-31T08:48:39.057Z,9.73
2022-12-31T08:53:41.466Z,8.10
2022-12-31T08:59:15.560Z,11.80
2022-12-31T09:05:07.320Z,9.90
2022-12-31T09:10:24.515Z,11.13
2022-12-31T09:15:38.540Z,9.20
2022-12-31T09:20:43.338Z,8.30
2022-12-31T09:26:07.501Z,9.80
2022-12-31T09:31:16.873Z,8.40
2022-12-31T09:36:50.033Z,9.73
2022-12-31T09:42:00.936Z,7.72
2022-12-31T09:47:42.295Z,8.75
2022-12-31T09:52:57.060Z,9.82
2022-12-31T09:58:36.885Z,9.00
2022-12-31T10:03:56.889Z,7.68
2022-12-31T10:09:10.987Z,8.98
2022-12-31T10:14:47.747Z,6.55
2022-12-31T10:20:21.000Z,7.93
2022-12-31T10:25:39.177Z,7.00
2022-12-31T10:30:54.423Z,8.90
2022-12-31T10:36:09.398Z,6.35
2022-12-31T10:41:43.711Z,6.90
2022-12-31T10:47:01.191Z,6.18
2022-12-31T10:52:24.375Z,7.03
2022-12-31T10:58:03.963Z,5.90
2022-12-31T11:03:28.822Z,6.22
2022-12-31T11:09:09.094Z,5.00
2022-12-31T11:14:50.700Z,5.43
2022-12-31T11:20:38.056Z,5.10
2022-12-31T11:25:52.111Z,6.00
2022-12-31T11:31:06.550Z,5.85
2022-12-31T11:36:37.592Z,5.97
2022-12-31T11:42:03.611Z,5.43
2022-12-31T11:47:26.608Z,6.32
2022-12-31T11:52:52.346Z,5.28
2022-12-31T11:57:55.508Z,4.78
2022-12-31T12:03:03.944Z,5.65
2022-12-31T12:08:06.536Z,5.43
2022-12-31T12:13:24.249Z,4.85
2022-12-31T12:18:41.113Z,5.85
2022-12-31T12:23:56.919Z,3.92
2022-12-31T12:29:26.617Z,3.10
2022-12-31T12:34:46.063Z,4.47
2022-12-31T12:40:02.955Z,3.13
2022-12-31T12:45:16.229Z,3.33
2022-12-31T12:50:23.906Z,3.75
2022-12-31T12:55:58.959Z,4.60
2022-12-31T13:01:31.580Z,3.45
2022-12-31T13:06:58.580Z,5.43
2022-12-31T13:12:07.557Z,4.75
2022-12-31T13:17:33.164Z,4.05
2022-12-31T13:22:40.755Z,4.75
2022-12-31T13:27:49.304Z,5.32
2022-12-31T13:33:16.377Z,4.28
2022-12-31T13:38:34.088Z,5.22
2022-12-31T13:44:11.373Z,5.32
2022-12-31T13:49:19.392Z,5.93
2022-12-31T13:59:47.068Z,3.75
2022-12-31T14:04:56.930Z,5.47
2022-12-31T14:09:59.395Z,5.03
2022-12-31T14:15:46.068Z,4.88
2022-12-31T14:20:55.035Z,4.85
2022-12-31T14:26:03.849Z,4.85
2022-12-31T14:31:19.996Z,4.22
2022-12-31T14:36:52.768Z,5.00
2022-12-31T14:42:29.558Z,5.43
2022-12-31T14:48:07.094Z,5.15
2022-12-31T14:53:26.640Z,5.47
2022-12-31T14:58:44.799Z,4.68
2022-12-31T15:03:47.094Z,4.45
2022-12-31T15:09:26.558Z,3.97
2022-12-31T15:14:51.318Z,4.05
2022-12-31T15:20:23.973Z,5.60
2022-12-31T15:25:40.508Z,4.90
2022-12-31T15:30:49.069Z,5.40
2022-12-31T15:35:54.999Z,4.65
2022-12-31T15:40:58.355Z,4.72
2022-12-31T15:46:02.151Z,7.35
2022-12-31T15:51:05.698Z,6.53
2022-12-31T15:56:17.332Z,5.25
2022-12-31T16:01:25.286Z,6.15
2022-12-31T16:06:30.740Z,4.53
2022-12-31T16:11:37.610Z,5.65
2022-12-31T16:16:39.654Z,5.95
2022-12-31T16:21:46.387Z,6.38
2022-12-31T16:26:52.027Z,6.72
2022-12-31T16:31:54.871Z,4.72
2022-12-31T16:37:04.716Z,5.28
2022-12-31T16:42:20.323Z,6.22
2022-12-31T16:47:36.104Z,7.35
2022-12-31T16:52:41.251Z,7.68
2022-12-31T16:57:46.682Z,6.50
2022-12-31T17:02:53.515Z,5.57
2022-12-31T17:07:56.011Z,5.75
2022-12-31T17:13:27.743Z,6.82
2022-12-31T17:18:25.931Z,6.10
2022-12-31T17:23:31.813Z,7.20
2022-12-31T17:28:45.274Z,5.35
2022-12-31T17:33:47.791Z,6.68
2022-12-31T17:38:50.780Z,9.10
2022-12-31T17:43:57.205Z,5.15
2022-12-31T17:49:03.977Z,7.32
2022-12-31T17:54:16.345Z,6.20
2022-12-31T17:59:24.149Z,7.82
2022-12-31T18:04:27.107Z,7.80
2022-12-31T18:09:29.400Z,8.98
2022-12-31T18:14:31.781Z,6.78
2022-12-31T18:24:55.871Z,7.72
2022-12-31T18:30:04.119Z,5.47
2022-12-31T18:35:33.277Z,8.43
2022-12-31T18:40:36.612Z,5.32
2022-12-31T18:45:38.758Z,5.68
2022-12-31T18:50:41.678Z,8.40
2022-12-31T18:55:55.805Z,7.45
2022-12-31T19:00:58.081Z,8.13
2022-12-31T19:06:00.298Z,5.38
2022-12-31T19:11:02.598Z,7.82
2022-12-31T19:16:04.923Z,6.00
2022-12-31T19:21:07.302Z,7.65
2022-12-31T19:26:15.401Z,5.03
2022-12-31T19:31:18.448Z,6.53
2022-12-31T19:36:21.065Z,7.65
2022-12-31T19:41:23.176Z,8.45
2022-12-31T19:46:25.560Z,7.43
2022-12-31T19:51:27.619Z,5.47
2022-12-31T19:56:29.750Z,6.85
2022-12-31T20:01:32.081Z,5.05
2022-12-31T20:06:34.326Z,5.07
2022-12-31T20:11:36.422Z,7.60
2022-12-31T20:16:38.517Z,7.93
2022-12-31T20:21:42.256Z,6.43
2022-12-31T20:26:44.324Z,7.35
2022-12-31T20:31:46.528Z,6.57
2022-12-31T20:36:48.881Z,6.30
2022-12-31T20:41:51.099Z,7.07
2022-12-31T20:46:53.142Z,8.48
2022-12-31T20:51:55.187Z,9.32
2022-12-31T21:07:21.253Z,8.68
2022-12-31T21:17:43.455Z,7.28
2022-12-31T21:22:45.581Z,8.77
2022-12-31T21:27:47.753Z,8.45
2022-12-31T21:32:49.897Z,7.90
2022-12-31T21:37:58.480Z,10.55
2022-12-31T21:43:03.092Z,9.40
2022-12-31T21:48:22.223Z,10.25
2022-12-31T21:53:32.126Z,6.90
2022-12-31T21:58:42.170Z,8.23
2022-12-31T22:03:44.790Z,6.72
2022-12-31T22:08:55.019Z,7.45
2022-12-31T22:13:57.853Z,7.90
2022-12-31T22:19:00.063Z,8.35
2022-12-31T22:24:03.440Z,7.50
2022-12-31T22:29:05.461Z,8.70
2022-12-31T22:34:07.506Z,8.70
2022-12-31T22:39:14.595Z,5.43
2022-12-31T22:44:36.549Z,4.35
2022-12-31T22:54:40.512Z,6.80
2022-12-31T22:59:42.610Z,5.60
2022-12-31T23:04:44.701Z,6.80
2022-12-31T23:10:05.495Z,4.65
2022-12-31T23:15:28.911Z,5.95
2022-12-31T23:20:49.186Z,7.53
2022-12-31T23:25:52.754Z,9.90
2022-12-31T23:30:54.786Z,10.15
2022-12-31T23:36:07.191Z,10.07
2022-12-31T23:41:22.313Z,6.45
2022-12-31T23:46:24.832Z,8.00
2022-12-31T23:51:26.961Z,8.85
2022-12-31T23:56:29.006Z,9.30
